Time;durP1;ratioP1;P1;durP2;ratioP2;P2;SDS_P1;SDS_P2;PMS_P1;PMS_P2;Temp;Humidity;BMP_temperature;BMP_pressure;BME280_temperature;BME280_humidity;BME280_pressure;Samples;Min_cycle;Max_cycle;Signal;HPM_P1;HPM_P2
2021/10/21 00:00:10;;;;;;;;;;;;;;;;;;;;;
2021/10/21 00:03:29;;;;;;;;;;;;;;;;;;;;;
2021/10/21 00:06:24;;;;;;;15.80;10.90;;;;;;;23.64;44.91;101550.94;111758;1228;61010;-88
2021/10/21 00:09:34;;;;;;;17.50;10.30;;;;;;;23.64;44.87;101549.33;111754;1228;61115;-85
2021/10/21 00:12:08;;;;;;;13.90;9.90;;;;;;;23.63;44.94;101543.79;111722;1230;72331;-85
2021/10/21 00:14:55;;;;;;;14.10;10.40;;;;;;;23.64;44.90;101541.95;111713;1230;74159;-89
2021/10/21 00:18:00;;;;;;;;;;;;;;;;;;;;;
2021/10/21 00:21:05;;;;;;;;;;;;;;;;;;;;;
2021/10/21 00:24:19;;;;;;;14.40;10.30;;;;;;;23.64;44.70;101541.05;111319;1231;72243;-82
2021/10/21 00:27:27;;;;;;;;;;;;;;;;;;;;;
2021/10/21 00:30:18;;;;;;;15.70;10.50;;;;;;;23.64;44.90;101530.77;111719;1230;60232;-83
2021/10/21 00:33:45;;;;;;;15.10;10.30;;;;;;;23.64;44.81;101524.47;111721;1230;60144;-82
2021/10/21 00:37:01;;;;;;;;;;;;;;;;;;;;;
2021/10/21 00:40:09;;;;;;;15.10;10.30;;;;;;;23.65;44.88;101518.16;111275;1231;73730;-87
2021/10/21 00:43:15;;;;;;;13.30;10.30;;;;;;;23.65;44.87;101514.18;111529;1231;60677;-83
2021/10/21 00:46:03;;;;;;;16.10;10.60;;;;;;;23.65;44.90;101504.65;111348;1232;60173;-85
2021/10/21 00:49:08;;;;;;;16.70;11.80;;;;;;;23.66;44.75;101497.05;111326;1231;71470;-81
2021/10/21 00:52:11;;;;;;;16.60;11.10;;;;;;;23.65;45.04;101496.74;111296;1231;76004;-84
2021/10/21 00:55:20;;;;;;;16.10;10.60;;;;;;;23.66;45.01;101490.73;111315;1232;60435;-79
2021/10/21 00:58:27;;;;;;;;;;;;;;;;;;;;;
2021/10/21 01:01:35;;;;;;;18.20;10.70;;;;;;;23.67;44.75;101489.27;110762;1237;71347;-87
2021/10/21 01:04:40;;;;;;;;;;;;;;;;;;;;;
2021/10/21 01:08:00;;;;;;;17.30;10.60;;;;;;;23.66;44.80;101477.80;110599;1239;60238;-83
2021/10/21 01:11:15;;;;;;;18.20;10.80;;;;;;;23.66;44.84;101475.80;110228;1244;60255;-84
2021/10/21 01:14:00;;;;;;;;;;;;;;;;;;;;;
2021/10/21 01:17:15;;;;;;;17.10;11.30;;;;;;;23.67;44.66;101461.22;109386;1250;74112;-84
2021/10/21 01:20:21;;;;;;;18.10;10.80;;;;;;;23.67;44.74;101461.73;109540;1250;60167;-85
2021/10/21 01:23:28;;;;;;;18.90;10.80;;;;;;;23.67;44.65;101455.12;109345;1250;60572;-83
2021/10/21 01:26:21;;;;;;;18.60;11.30;;;;;;;23.67;44.60;101452.21;109382;1250;72445;-82
2021/10/21 01:29:30;;;;;;;;;;;;;;;;;;;;;
2021/10/21 01:32:36;;;;;;;;;;;;;;;;;;;;;
2021/10/21 01:35:43;;;;;;;16.90;11.10;;;;;;;23.68;44.56;101442.65;109379;1250;61294;-80
2021/10/21 01:38:49;;;;;;;15.60;11.00;;;;;;;23.68;44.65;101441.20;109874;1247;74351;-84
2021/10/21 01:41:50;;;;;;;;;;;;;;;;;;;;;
2021/10/21 01:44:53;;;;;;;15.90;10.60;;;;;;;23.68;44.65;101441.73;109369;1250;61151;-85
2021/10/21 01:47:37;;;;;;;18.50;11.30;;;;;;;23.68;44.58;101438.28;109634;1247;60433;-85
2021/10/21 01:50:42;;;;;;;17.80;10.30;;;;;;;23.69;44.53;101439.70;109974;1241;73910;-85
2021/10/21 01:54:09;;;;;;;17.90;11.10;;;;;;;23.69;44.66;101439.52;110272;1241;72510;-84
2021/10/21 01:57:17;;;;;;;14.20;9.80;;;;;;;23.69;44.62;101441.33;110256;1241;60272;-84
2021/10/21 02:00:22;;;;;;;15.70;10.70;;;;;;;23.69;44.61;101435.20;110226;1242;60225;-87
2021/10/21 02:03:16;;;;;;;16.20;10.10;;;;;;;23.69;44.59;101434.84;110264;1241;73267;-82
2021/10/21 02:06:13;;;;;;;;;;;;;;;;;;;;;
2021/10/21 02:09:15;;;;;;;16.40;10.50;;;;;;;23.69;44.52;101431.92;110299;1240;60543;-85
2021/10/21 02:12:26;;;;;;;17.20;10.30;;;;;;;23.69;44.57;101428.69;110272;1242;61073;-82
2021/10/21 02:15:19;;;;;;;17.80;11.00;;;;;;;23.69;44.59;101425.83;110300;1241;72593;-82
2021/10/21 02:18:34;;;;;;;14.80;10.40;;;;;;;23.69;44.52;101422.03;110610;1238;74663;-83
2021/10/21 02:21:20;;;;;;;16.60;10.50;;;;;;;23.70;44.60;101422.00;111233;1232;60183;-84
2021/10/21 02:24:07;;;;;;;16.60;10.80;;;;;;;23.70;44.59;101419.27;111202;1232;60198;-84
2021/10/21 02:27:43;;;;;;;16.50;10.00;;;;;;;23.71;44.46;101418.54;111090;1235;72658;-84
2021/10/21 02:30:23;;;;;;;;;;;;;;;;;;;;;
2021/10/21 02:33:39;;;;;;;17.70;11.10;;;;;;;23.70;44.43;101423.43;110609;1235;60297;-82
2021/10/21 02:36:28;;;;;;;15.60;10.40;;;;;;;23.70;44.30;101416.77;110853;1232;60255;-84
2021/10/21 02:40:13;;;;;;;;;;;;;;;;;;;;;
2021/10/21 02:43:12;;;;;;;15.60;10.80;;;;;;;23.70;44.40;101416.45;111131;1234;72826;-86
2021/10/21 02:46:19;;;;;;;15.90;10.20;;;;;;;23.70;44.51;101417.84;111094;1234;61148;-79
2021/10/21 02:49:19;;;;;;;;;;;;;;;23.71;44.55;101412.03;111108;1235;60820;-83
2021/10/21 02:52:18;;;;;;;16.50;10.50;;;;;;;23.69;44.53;101410.55;111223;1231;73375;-82
2021/10/21 02:55:33;;;;;;;14.80;10.30;;;;;;;23.70;44.57;101409.61;111469;1232;74692;-86
2021/10/21 02:58:39;;;;;;;16.30;10.60;;;;;;;23.70;44.35;101407.45;111290;1232;61192;-87
2021/10/21 03:01:47;;;;;;;15.60;11.00;;;;;;;23.70;44.43;101406.35;111518;1232;61106;-83
2021/10/21 03:04:36;;;;;;;14.90;10.40;;;;;;;23.70;44.48;101406.69;111429;1229;72547;-81
2021/10/21 03:07:51;;;;;;;;;;;;;;;;;;;;;
2021/10/21 03:10:54;;;;;;;;;;;;;;;;;;;;;
2021/10/21 03:14:04;;;;;;;16.50;10.50;;;;;;;23.71;44.34;101398.72;111504;1230;60361;-81
2021/10/21 03:17:18;;;;;;;16.80;10.80;;;;;;;23.72;44.35;101397.42;111482;1231;72606;-84
2021/10/21 03:20:23;;;;;;;15.20;10.50;;;;;;;23.72;44.28;101395.23;111762;1226;74621;-89
2021/10/21 03:23:24;;;;;;;14.70;10.00;;;;;;;23.72;44.02;101390.93;112163;1225;60307;-85
2021/10/21 03:26:28;;;;;;;;;;;;;;;;;;;;;
2021/10/21 03:29:55;;;;;;;14.90;9.90;;;;;;;23.72;44.37;101382.83;112430;1224;71268;-85
2021/10/21 03:32:33;;;;;;;17.00;10.30;;;;;;;23.72;44.16;101380.32;112501;1223;73841;-85
2021/10/21 03:35:55;;;;;;;14.70;10.00;;;;;;;23.73;44.03;101372.87;112601;1221;60350;-87
2021/10/21 03:38:52;;;;;;;15.50;10.00;;;;;;;23.73;44.27;101373.63;112870;1221;60165;-83
2021/10/21 03:41:48;;;;;;;13.10;10.00;;;;;;;23.72;44.24;101372.20;112901;1219;73533;-84
2021/10/21 03:44:48;;;;;;;15.10;9.50;;;;;;;23.73;44.18;101373.59;113001;1216;74809;-85
2021/10/21 03:47:50;;;;;;;;;;;;;;;;;;;;;
2021/10/21 03:50:57;;;;;;;13.10;9.80;;;;;;;23.73;44.15;101360.11;112878;1219;60182;-78
2021/10/21 03:53:57;;;;;;;12.10;9.50;;;;;;;23.73;44.13;101357.39;112540;1222;72468;-82
2021/10/21 03:57:04;;;;;;;13.50;9.40;;;;;;;23.73;44.25;101353.26;112596;1220;73443;-85
2021/10/21 04:00:03;;;;;;;16.20;10.60;;;;;;;23.74;44.17;101354.65;112861;1221;60666;-84
2021/10/21 04:03:12;;;;;;;;;;;;;;;;;;;;;
2021/10/21 04:06:19;;;;;;;13.50;9.20;;;;;;;23.74;44.12;101347.79;112121;1225;73425;-87
2021/10/21 04:09:15;;;;;;;;;;;;;;;;;;;;;
2021/10/21 04:12:16;;;;;;;16.70;9.10;;;;;;;23.75;43.97;101342.73;112015;1227;60312;-85
2021/10/21 04:15:32;;;;;;;13.10;9.30;;;;;;;23.75;43.86;101340.61;111855;1226;60242;-83
2021/10/21 04:18:28;;;;;;;12.80;9.70;;;;;;;23.75;44.02;101338.94;112094;1225;72484;-80
2021/10/21 04:21:34;;;;;;;12.20;8.50;;;;;;;23.76;44.05;101342.48;112066;1225;74616;-78
2021/10/21 04:24:24;;;;;;;14.30;9.70;;;;;;;23.76;44.03;101339.39;112267;1224;60582;-86
2021/10/21 04:27:09;;;;;;;;;;;;;;;23.76;43.88;101336.02;112104;1227;60539;-83
2021/10/21 04:30:08;;;;;;;;;;;;;;;;;;;;;
2021/10/21 04:33:10;;;;;;;;;;;;;;;;;;;;;
2021/10/21 04:36:16;;;;;;;21.50;10.80;;;;;;;23.75;43.64;101329.44;112558;1222;60210;-90
2021/10/21 04:39:01;;;;;;;17.70;10.60;;;;;;;23.75;43.53;101328.38;112287;1225;60258;-86
2021/10/21 04:41:50;;;;;;;16.00;10.60;;;;;;;23.75;43.31;101324.98;112519;1223;72264;-88
2021/10/21 04:45:22;;;;;;;18.00;11.50;;;;;;;23.74;43.24;101324.83;112863;1219;73760;-85
2021/10/21 04:48:18;;;;;;;;;;;;;;;;;;;;;
2021/10/21 04:51:29;;;;;;;17.50;11.40;;;;;;;23.73;42.90;101321.52;112544;1222;61999;-87
2021/10/21 04:55:00;;;;;;;18.60;11.50;;;;;;;23.72;42.66;101318.88;112871;1219;72425;-82
2021/10/21 04:57:41;;;;;;;15.40;11.20;;;;;;;23.71;42.58;101316.63;112487;1222;75324;-86
2021/10/21 05:00:56;;;;;;;18.70;12.20;;;;;;;23.70;42.27;101315.27;111976;1228;60169;-78
2021/10/21 05:03:46;;;;;;;24.40;12.20;;;;;;;23.69;42.13;101315.90;112068;1227;60182;-83
2021/10/21 05:06:53;;;;;;;;;;;;;;;;;;;;;
2021/10/21 05:09:57;;;;;;;25.10;13.10;;;;;;;23.67;41.81;101319.60;111817;1228;74676;-83
2021/10/21 05:12:54;;;;;;;24.40;13.00;;;;;;;23.67;41.66;101320.73;111823;1227;60181;-78
2021/10/21 05:16:00;;;;;;;23.20;13.50;;;;;;;23.66;41.41;101319.65;111876;1228;60342;-81
2021/10/21 05:21:56;;;;;;;23.50;13.70;;;;;;;23.65;41.16;101315.63;111700;1227;74976;-80
2021/10/21 05:25:12;;;;;;;;;;;;;;;;;;;;;
2021/10/21 05:28:20;;;;;;;;;;;;;;;;;;;;;
2021/10/21 05:31:07;;;;;;;22.00;13.80;;;;;;;23.64;40.33;101315.54;111226;1231;73645;-85
2021/10/21 05:33:52;;;;;;;23.60;14.70;;;;;;;23.64;40.21;101310.15;111716;1227;74787;-81
2021/10/21 05:36:53;;;;;;;22.10;13.60;;;;;;;23.62;39.75;101312.77;112154;1225;60170;-80
2021/10/21 05:39:48;;;;;;;18.10;13.00;;;;;;;23.60;39.84;101314.88;112021;1225;60177;-80
2021/10/21 05:42:32;;;;;;;18.10;13.00;;;;;;;23.58;39.66;101310.92;111487;1228;73647;-80
2021/10/21 05:45:38;;;;;;;12.20;8.50;;;;;;;23.57;39.56;101314.05;111323;1231;72614;-81
2021/10/21 05:48:17;;;;;;;18.50;12.80;;;;;;;23.56;39.46;101312.33;111310;1232;62365;-80
2021/10/21 05:51:09;;;;;;;20.20;13.50;;;;;;;23.55;39.26;101309.87;111740;1228;60508;-83
2021/10/21 05:54:12;;;;;;;19.10;12.70;;;;;;;23.53;39.31;101305.15;111514;1230;73301;-82
2021/10/21 05:57:00;;;;;;;22.70;13.70;;;;;;;23.53;38.95;101305.39;111604;1225;73920;-80
2021/10/21 05:59:55;;;;;;;24.30;12.80;;;;;;;23.51;39.21;101303.34;111773;1225;59815;-80
2021/10/21 06:02:51;;;;;;;19.90;13.60;;;;;;;23.51;38.91;101305.88;111857;1225;60860;-79
2021/10/21 06:06:00;;;;;;;19.70;12.40;;;;;;;23.49;38.79;101302.59;112096;1224;72453;-79
2021/10/21 06:08:26;;;;;;;20.00;13.50;;;;;;;23.48;38.88;101301.58;112257;1221;75179;-81
2021/10/21 06:11:45;;;;;;;20.30;13.70;;;;;;;23.48;38.75;101293.36;112342;1223;60107;-88
2021/10/21 06:14:32;;;;;;;22.20;12.90;;;;;;;23.47;38.85;101291.25;112284;1224;60562;-85
2021/10/21 06:18:03;;;;;;;16.60;12.80;;;;;;;23.45;39.05;101286.91;112395;1224;72913;-86
2021/10/21 06:20:41;;;;;;;19.60;13.40;;;;;;;23.45;39.03;101286.36;112476;1222;73587;-81
2021/10/21 06:23:48;;;;;;;21.00;12.70;;;;;;;23.45;38.98;101284.61;112568;1220;61224;-82
2021/10/21 06:26:56;;;;;;;23.00;13.50;;;;;;;23.45;38.93;101282.79;112605;1212;60382;-81
2021/10/21 06:29:27;;;;;;;21.40;12.90;;;;;;;23.45;38.96;101283.15;112518;1222;72228;-82
2021/10/21 06:32:50;;;;;;;;;;;;;;;;;;;;;
2021/10/21 06:35:52;;;;;;;21.20;13.70;;;;;;;23.44;39.03;101274.80;112385;1224;61405;-79
2021/10/21 06:38:39;;;;;;;24.40;13.10;;;;;;;23.43;39.03;101277.20;112148;1224;60170;-84
2021/10/21 06:41:24;;;;;;;15.50;12.10;;;;;;;23.42;38.98;101273.81;112353;1224;72283;-87
2021/10/21 06:44:41;;;;;;;;;;;;;;;;;;;;;
2021/10/21 06:47:28;;;;;;;20.30;12.80;;;;;;;23.39;38.88;101270.31;112078;1226;61162;-85
2021/10/21 06:50:18;;;;;;;17.90;12.40;;;;;;;23.37;39.01;101271.33;112277;1224;61251;-83
2021/10/21 06:53:18;;;;;;;18.80;12.80;;;;;;;23.36;39.04;101268.73;112300;1224;73806;-80
2021/10/21 06:56:14;;;;;;;16.70;12.40;;;;;;;23.35;38.92;101267.93;112331;1224;74779;-84
2021/10/21 06:59:33;;;;;;;16.90;12.00;;;;;;;23.32;38.86;101266.65;111943;1227;60169;-80
2021/10/21 07:02:32;;;;;;;16.00;11.90;;;;;;;23.32;38.82;101268.34;112003;1226;60168;-83
2021/10/21 07:05:38;;;;;;;;;;;;;;;;;;;;;
2021/10/21 07:08:29;;;;;;;16.60;11.80;;;;;;;23.28;38.89;101263.41;111995;1228;73932;-86
2021/10/21 07:11:15;;;;;;;16.90;11.70;;;;;;;23.26;39.04;101264.23;111699;1228;60201;-81
2021/10/21 07:13:52;;;;;;;13.00;11.00;;;;;;;23.24;38.98;101261.64;111900;1227;60427;-82
2021/10/21 07:17:01;;;;;;;15.90;11.80;;;;;;;23.24;39.07;101266.55;111931;1225;74348;-82
2021/10/21 07:19:51;;;;;;;;;;;;;;;;;;;;;
2021/10/21 07:22:37;;;;;;;15.00;11.50;;;;;;;23.23;39.24;101261.77;111846;1226;60166;-81
2021/10/21 07:25:26;;;;;;;16.30;11.10;;;;;;;23.23;39.04;101264.47;111824;1225;60319;-85
2021/10/21 07:28:13;;;;;;;14.80;11.30;;;;;;;23.22;39.22;101265.81;111731;1227;72555;-81
2021/10/21 07:30:59;;;;;;;18.90;12.00;;;;;;;23.20;39.32;101259.27;111551;1229;73001;-80
2021/10/21 07:34:18;;;;;;;16.50;11.80;;;;;;;23.17;39.38;101256.42;111222;1231;60245;-85
2021/10/21 07:37:29;;;;;;;14.30;11.20;;;;;;;23.15;39.47;101254.45;111241;1231;61390;-83
2021/10/21 07:40:39;;;;;;;17.20;12.10;;;;;;;23.13;39.62;101251.20;111081;1233;72825;-83
2021/10/21 07:43:13;;;;;;;15.50;11.60;;;;;;;23.10;39.69;101248.13;110966;1231;74777;-81
2021/10/21 07:45:50;;;;;;;16.80;12.90;;;;;;;23.08;39.73;101243.20;111056;1232;60112;-83
2021/10/21 07:48:25;;;;;;;18.10;12.30;;;;;;;23.07;39.66;101241.02;111147;1230;60942;-82
2021/10/21 07:51:51;;;;;;;19.70;12.10;;;;;;;23.04;40.00;101238.11;111458;1231;71265;-81
2021/10/21 07:54:53;;;;;;;17.90;12.20;;;;;;;23.02;39.93;101230.20;111402;1231;74985;-83
2021/10/21 07:58:19;;;;;;;16.90;12.00;;;;;;;23.01;40.06;101227.78;111127;1233;61571;-85
2021/10/21 08:02:11;;;;;;;15.10;11.30;;;;;;;23.00;40.09;101222.63;110342;1241;60257;-84
2021/10/21 08:04:41;;;;;;;13.40;10.70;;;;;;;22.99;40.18;101220.38;110385;1241;73124;-80
2021/10/21 08:07:58;;;;;;;15.10;11.40;;;;;;;22.99;40.22;101219.35;110570;1238;73930;-85
2021/10/21 08:11:06;;;;;;;;;;;;;;;;;;;;;
2021/10/21 08:14:01;;;;;;;17.40;11.10;;;;;;;22.97;40.14;101218.94;110862;1235;61091;-80
2021/10/21 08:16:45;;;;;;;14.40;10.30;;;;;;;22.96;40.36;101212.33;110830;1232;73492;-80
2021/10/21 08:19:31;;;;;;;14.50;10.20;;;;;;;22.96;40.26;101212.52;111031;1232;73698;-82
2021/10/21 08:23:20;;;;;;;13.30;10.40;;;;;;;22.95;40.40;101211.70;111257;1229;60204;-80
2021/10/21 08:26:11;;;;;;;13.70;11.40;;;;;;;22.94;40.58;101209.23;111393;1230;60317;-81
2021/10/21 08:28:58;;;;;;;16.10;11.30;;;;;;;22.93;40.56;101205.70;111353;1226;72664;-81
2021/10/21 08:31:55;;;;;;;;;;;;;;;;;;;;;
2021/10/21 08:34:51;;;;;;;15.20;9.60;;;;;;;22.93;40.54;101197.83;111947;1225;61152;-88
2021/10/21 08:37:37;;;;;;;15.70;11.90;;;;;;;22.93;40.55;101191.59;111649;1225;61481;-80
2021/10/21 08:40:37;;;;;;;15.20;10.70;;;;;;;22.92;40.50;101192.70;112444;1219;72610;-80
2021/10/21 08:43:45;;;;;;;14.80;11.10;;;;;;;22.91;40.60;101184.17;112537;1219;74509;-79
2021/10/21 08:46:30;;;;;;;13.00;11.00;;;;;;;22.90;40.53;101183.36;112375;1219;60341;-82
2021/10/21 08:49:24;;;;;;;16.30;10.40;;;;;;;22.89;40.36;101182.70;112783;1214;61119;-79
2021/10/21 08:52:10;;;;;;;14.80;10.60;;;;;;;22.88;40.32;101179.52;112728;1215;72242;-80
2021/10/21 08:55:06;;;;;;;;;;;;;;;;;;;;;
2021/10/21 08:58:06;;;;;;;14.70;10.00;;;;;;;22.87;40.42;101177.12;112594;1216;61560;-80
2021/10/21 09:00:36;;;;;;;13.40;10.70;;;;;;;22.86;40.36;101174.29;112683;1216;60234;-80
2021/10/21 09:03:21;;;;;;;13.10;10.30;;;;;;;22.87;40.46;101168.52;113051;1215;72527;-79
2021/10/21 09:06:03;;;;;;;13.80;9.90;;;;;;;22.86;40.45;101166.73;112889;1216;74060;-80
2021/10/21 09:08:37;;;;;;;12.50;9.70;;;;;;;22.86;40.41;101160.11;112559;1219;61185;-81
2021/10/21 09:11:23;;;;;;;12.00;9.70;;;;;;;22.87;40.44;101158.27;112663;1216;61140;-81
2021/10/21 09:14:12;;;;;;;11.80;9.40;;;;;;;22.88;40.47;101151.39;112774;1212;72264;-81
2021/10/21 09:17:25;;;;;;;13.10;9.70;;;;;;;22.88;40.54;101151.54;112868;1211;74044;-80
2021/10/21 09:20:37;;;;;;;;;;;;;;;;;;;;;
2021/10/21 09:23:38;;;;;;;12.80;9.00;;;;;;;22.88;40.53;101139.70;112843;1214;60209;-80
2021/10/21 09:26:17;;;;;;;11.90;8.90;;;;;;;22.88;40.57;101133.03;112731;1217;72149;-79
2021/10/21 09:29:26;;;;;;;10.60;8.90;;;;;;;22.89;40.60;101128.30;112549;1218;73204;-80
2021/10/21 09:32:40;;;;;;;11.60;8.80;;;;;;;22.89;40.55;101120.40;112616;1216;60155;-81
2021/10/21 09:35:28;;;;;;;12.10;8.80;;;;;;;22.89;40.65;101119.71;112567;1217;60264;-79
2021/10/21 09:38:25;;;;;;;;;;;;;;;;;;;;;
2021/10/21 09:41:19;;;;;;;12.70;8.90;;;;;;;22.90;40.55;101118.58;112838;1216;74514;-81
2021/10/21 09:44:02;;;;;;;9.70;8.30;;;;;;;22.90;40.52;101108.52;112472;1219;61023;-81
2021/10/21 09:47:34;;;;;;;13.40;8.80;;;;;;;22.90;40.61;101111.39;112628;1218;60261;-80
2021/10/21 09:50:40;;;;;;;10.60;8.80;;;;;;;22.89;40.70;101109.62;112588;1221;72299;-81
2021/10/21 09:53:40;;;;;;;9.70;8.40;;;;;;;22.89;40.72;101110.55;112493;1222;74699;-81
2021/10/21 09:57:27;;;;;;;12.10;9.00;;;;;;;22.88;40.68;101109.54;112300;1222;60648;-85
2021/10/21 10:00:19;;;;;;;11.70;9.00;;;;;;;22.88;40.77;101104.70;111779;1227;60223;-80
2021/10/21 10:03:50;;;;;;;10.60;8.50;;;;;;;22.88;40.78;101098.95;111766;1225;72331;-82
2021/10/21 10:06:35;;;;;;;10.00;8.50;;;;;;;22.87;40.63;101088.61;111872;1225;73801;-86
2021/10/21 10:09:36;;;;;;;11.90;8.70;;;;;;;22.88;40.59;101085.48;111551;1228;61187;-80
2021/10/21 10:12:45;;;;;;;;;;;;;;;;;;;;;
2021/10/21 10:15:33;;;;;;;11.80;8.80;;;;;;;22.87;40.56;101072.25;111060;1234;73557;-81
2021/10/21 10:18:53;;;;;;;10.20;8.30;;;;;;;22.88;40.53;101065.41;110683;1236;72565;-83
2021/10/21 10:21:42;;;;;;;9.60;7.80;;;;;;;22.88;40.48;101058.05;110725;1236;61207;-84
2021/10/21 10:24:42;;;;;;;9.30;7.80;;;;;;;22.87;40.74;101053.45;109980;1243;60194;-81
2021/10/21 10:27:42;;;;;;;10.20;8.30;;;;;;;22.88;40.68;101049.41;109967;1241;73889;-83
2021/10/21 10:31:10;;;;;;;10.90;8.60;;;;;;;22.87;40.64;101042.67;110013;1241;72556;-83
2021/10/21 10:34:05;;;;;;;11.30;8.60;;;;;;;22.86;40.62;101037.54;109706;1244;60734;-81
2021/10/21 10:37:17;;;;;;;10.60;8.20;;;;;;;22.85;40.53;101027.23;109685;1244;61393;-80
2021/10/21 10:40:04;;;;;;;11.60;8.70;;;;;;;22.84;40.61;101022.99;109813;1241;76673;-80
2021/10/21 10:43:07;;;;;;;12.00;8.10;;;;;;;22.84;40.58;101017.46;110108;1240;74068;-80
2021/10/21 10:45:59;;;;;;;11.30;8.40;;;;;;;22.84;40.65;101016.34;110353;1240;60484;-78
2021/10/21 10:49:18;;;;;;;9.90;8.20;;;;;;;22.84;40.54;101013.14;110464;1237;60114;-84
2021/10/21 10:52:17;;;;;;;11.50;8.20;;;;;;;22.84;40.49;101011.89;110756;1235;72523;-83
2021/10/21 10:55:25;;;;;;;10.60;8.70;;;;;;;22.84;40.51;101004.91;110809;1234;72610;-82
2021/10/21 10:58:20;;;;;;;12.10;9.10;;;;;;;22.84;40.48;100999.16;110799;1234;60249;-81
2021/10/21 11:01:20;;;;;;;9.60;8.00;;;;;;;22.84;40.58;100993.23;110840;1230;60728;-80
2021/10/21 11:04:27;;;;;;;10.10;8.00;;;;;;;22.84;40.43;100985.30;111223;1230;72573;-81
2021/10/21 11:07:16;;;;;;;12.50;8.00;;;;;;;22.85;40.47;100978.09;111488;1226;73855;-80
2021/10/21 11:10:37;;;;;;;12.90;8.30;;;;;;;22.85;40.61;100978.22;111648;1226;60442;-80
2021/10/21 11:13:46;;;;;;;12.30;7.80;;;;;;;22.86;40.54;100969.19;111660;1222;61234;-80
2021/10/21 11:17:21;;;;;;;8.90;7.30;;;;;;;22.86;40.52;100958.20;112104;1224;72277;-83
2021/10/21 11:20:04;;;;;;;10.40;8.20;;;;;;;22.86;40.67;100951.04;111853;1227;75778;-84
2021/10/21 11:22:50;;;;;;;10.00;7.60;;;;;;;22.87;40.63;100944.02;111757;1227;60565;-80
2021/10/21 11:25:33;;;;;;;9.90;8.10;;;;;;;22.88;40.68;100940.66;111371;1228;60175;-80
2021/10/21 11:28:15;;;;;;;;;;;;;;;;;;;;;
2021/10/21 11:30:44;;;;;;;9.90;7.90;;;;;;;22.89;40.87;100933.77;111551;1225;74678;-79
2021/10/21 11:33:32;;;;;;;;;;;;;;;;;;;;;
2021/10/21 11:36:41;;;;;;;10.30;8.00;;;;;;;22.90;40.79;100929.08;111715;1225;60272;-83
2021/10/21 11:39:33;;;;;;;9.90;7.90;;;;;;;22.90;40.74;100923.30;112003;1223;73194;-81
2021/10/21 11:42:49;;;;;;;;;;;;;;;;;;;;;
2021/10/21 11:45:58;;;;;;;10.70;7.60;;;;;;;22.90;41.03;100912.88;112246;1223;61051;-82
2021/10/21 11:48:52;;;;;;;11.40;7.60;;;;;;;22.90;40.97;100907.30;112338;1222;61301;-80
2021/10/21 11:51:47;;;;;;;9.80;7.50;;;;;;;22.91;40.99;100898.09;112316;1223;73569;-80
2021/10/21 11:54:33;;;;;;;10.60;7.70;;;;;;;22.92;41.05;100895.02;112450;1224;74576;-84
2021/10/21 11:57:45;;;;;;;8.90;7.40;;;;;;;22.92;41.03;100892.50;112392;1222;60205;-80
2021/10/21 12:00:55;;;;;;;12.30;7.70;;;;;;;22.92;41.09;100886.38;112618;1222;60178;-84
2021/10/21 12:03:55;;;;;;;;;;;;;;;;;;;;;
2021/10/21 12:06:42;;;;;;;8.90;7.60;;;;;;;22.91;41.25;100876.72;112599;1222;74543;-81
2021/10/21 12:09:31;;;;;;;9.30;7.30;;;;;;;22.91;41.24;100873.82;112717;1222;61525;-84
2021/10/21 12:12:57;;;;;;;;;;;;;;;;;;;;;
2021/10/21 12:15:54;;;;;;;10.50;7.20;;;;;;;22.90;41.39;100869.06;112469;1224;74020;-81
2021/10/21 12:19:13;;;;;;;9.90;7.50;;;;;;;22.91;41.44;100867.61;112084;1225;73711;-84
2021/10/21 12:22:28;;;;;;;9.50;7.30;;;;;;;22.89;41.33;100861.59;111569;1228;60185;-80
2021/10/21 12:25:05;;;;;;;10.40;7.40;;;;;;;22.90;41.58;100858.64;111855;1227;60194;-79
2021/10/21 12:28:20;;;;;;;9.30;7.80;;;;;;;22.91;41.77;100858.23;111629;1228;74260;-83
2021/10/21 12:30:45;;;;;;;9.60;6.80;;;;;;;22.91;41.84;100854.83;111841;1225;73714;-80
2021/10/21 12:33:32;;;;;;;9.00;7.30;;;;;;;22.91;41.87;100850.89;112019;1223;60168;-81
2021/10/21 12:36:51;;;;;;;10.00;7.20;;;;;;;22.91;42.09;100855.16;111788;1225;61271;-86
2021/10/21 12:40:11;;;;;;;9.90;7.50;;;;;;;22.91;41.95;100852.14;111786;1228;73404;-81
2021/10/21 12:43:23;;;;;;;;;;;;;;;;;;;;;
2021/10/21 12:47:04;;;;;;;9.10;7.50;;;;;;;22.92;41.81;100842.79;111400;1228;60297;-80
2021/10/21 12:50:15;;;;;;;8.10;6.80;;;;;;;22.91;42.12;100832.76;110820;1234;61441;-82
2021/10/21 12:53:03;;;;;;;8.40;7.20;;;;;;;22.92;42.11;100831.66;110623;1235;72583;-82
2021/10/21 12:55:50;;;;;;;8.50;7.20;;;;;;;22.91;42.06;100828.23;110867;1234;74457;-80
2021/10/21 12:58:57;;;;;;;10.00;6.90;;;;;;;22.92;42.21;100821.74;111203;1230;60321;-78
2021/10/21 13:02:19;;;;;;;8.80;7.20;;;;;;;22.92;42.19;100820.15;111526;1230;60161;-85
2021/10/21 13:05:29;;;;;;;8.10;6.50;;;;;;;22.91;42.30;100816.98;111255;1232;72782;-88
2021/10/21 13:08:33;;;;;;;8.70;7.20;;;;;;;22.91;42.46;100814.13;111175;1232;73664;-86
2021/10/21 13:11:53;;;;;;;;;;;;;;;;;;;;;
2021/10/21 13:15:07;;;;;;;8.50;6.80;;;;;;;22.91;42.59;100807.88;111357;1232;60298;-86
2021/10/21 13:18:19;;;;;;;9.40;7.30;;;;;;;22.90;42.47;100801.59;111220;1232;73522;-86
2021/10/21 13:21:10;;;;;;;8.90;7.20;;;;;;;22.90;42.68;100798.17;111248;1232;73711;-83
2021/10/21 13:24:27;;;;;;;9.20;7.30;;;;;;;22.90;42.59;100799.27;111589;1227;59149;-86
2021/10/21 13:27:54;;;;;;;;;;;;;;;;;;;;;
2021/10/21 13:30:43;;;;;;;9.00;7.10;;;;;;;22.90;42.73;100791.97;110937;1233;71899;-83
2021/10/21 13:34:00;;;;;;;10.10;7.50;;;;;;;22.90;42.87;100788.36;110622;1235;72578;-80
2021/10/21 13:36:56;;;;;;;9.80;7.30;;;;;;;22.89;42.86;100781.05;110752;1235;60302;-80
2021/10/21 13:40:03;;;;;;;9.30;6.90;;;;;;;22.90;42.82;100781.20;110729;1234;60490;-81
2021/10/21 13:43:12;;;;;;;8.30;7.00;;;;;;;22.90;42.73;100782.10;110687;1235;72488;-83
2021/10/21 13:46:27;;;;;;;7.80;6.80;;;;;;;22.89;42.85;100782.12;110882;1233;74731;-78
2021/10/21 13:49:46;;;;;;;8.50;7.20;;;;;;;22.89;42.85;100780.54;111259;1232;60295;-84
2021/10/21 13:52:56;;;;;;;7.80;7.00;;;;;;;22.89;43.03;100776.20;110753;1237;60358;-90
2021/10/21 13:56:13;;;;;;;;;;;;;;;;;;;;;
2021/10/21 13:59:23;;;;;;;8.40;7.00;;;;;;;22.89;43.11;100778.40;110593;1238;74696;-86
2021/10/21 14:02:21;;;;;;;8.70;7.10;;;;;;;22.89;43.08;100778.39;110601;1238;61101;-78
2021/10/21 14:05:22;;;;;;;9.90;7.40;;;;;;;22.88;42.97;100772.68;110755;1235;61312;-87
2021/10/21 14:08:38;;;;;;;;;;;;;;;;;;;;;
2021/10/21 14:12:08;;;;;;;;;;;;;;;;;;;;;
2021/10/21 14:15:16;;;;;;;9.20;6.70;;;;;;;22.88;43.32;100762.13;111585;1230;60357;-83
2021/10/21 14:18:05;;;;;;;8.20;6.90;;;;;;;22.88;43.31;100757.12;111182;1232;60348;-85
2021/10/21 14:21:38;;;;;;;8.70;6.60;;;;;;;22.88;43.31;100754.62;111390;1232;73823;-83
2021/10/21 14:24:48;;;;;;;9.20;6.40;;;;;;;22.88;43.44;100753.55;111173;1233;73840;-86
2021/10/21 14:27:36;;;;;;;8.80;6.90;;;;;;;22.87;43.43;100745.69;110747;1235;60145;-86
2021/10/21 14:31:12;;;;;;;10.10;7.50;;;;;;;22.87;43.56;100743.90;111206;1232;61704;-83
2021/10/21 14:34:14;;;;;;;8.50;7.10;;;;;;;22.87;43.67;100745.29;111504;1231;72418;-82
2021/10/21 14:37:26;;;;;;;8.90;6.80;;;;;;;22.87;43.49;100738.53;111668;1229;73594;-88
2021/10/21 14:40:32;;;;;;;8.00;7.00;;;;;;;22.87;43.68;100737.08;111478;1230;61054;-88
2021/10/21 14:43:28;;;;;;;9.20;6.60;;;;;;;22.87;43.60;100732.77;111375;1230;60726;-91
2021/10/21 14:46:42;;;;;;;8.30;6.90;;;;;;;22.88;43.74;100737.73;111573;1230;72532;-84
2021/10/21 14:49:38;;;;;;;;;;;;;;;;;;;;;
2021/10/21 14:55:37;;;;;;;7.50;6.40;;;;;;;22.87;43.94;100740.14;111080;1234;60256;-88
2021/10/21 15:02:06;;;;;;;8.60;6.40;;;;;;;22.84;43.92;100730.34;111145;1232;72550;-86
2021/10/21 15:05:24;;;;;;;6.40;5.30;;;;;;;22.85;43.82;100726.14;111582;1228;60407;-83
2021/10/21 15:25:18;;;;;;;;;;;;;;;;;;;;;
2021/10/21 15:28:30;;;;;;;8.80;6.80;;;;;;;22.85;44.24;100724.92;111108;1234;74719;-82
2021/10/21 15:31:19;;;;;;;8.20;6.70;;;;;;;22.85;44.16;100724.38;111128;1232;60402;-80